Portada
METAR-TAF:

METAR-TAF

Aeroports :

Al-Ula, Aràbia Saudita

latitud: 26-29-00N, longitud: 038-07-01E, altitud: 624 m

Observació

L'informe es va fer fa 49 minuts, a les 05:00 UTC
Vent 20 kt del Oest/Nord-Oest
Temperatura 29°C
Humitat 20%
Pressió 1013 hPa
Visibilitat 10 km o més
sense núvols per sota de 1500 mi sense presència de cumulonimbus.

METAR: OEAO 270500Z 30020KT CAVOK 29/04 Q1013

Hora: 08:49 (05:49 UTC)

Pronòstic

L'informe es va fer fa 6 hores i 49 minuts, a les 23:00 UTC
Pronòstic vàlid del 27 a les 00 UTC al 28 a les 06 UTC
Vent 16 kt del Nord
Visibilitat: 7000 m
Temporalment
l' 27 a les 02 UTC al 27 a les 10 UTC
Visibilitat: 5000 m
torb alta de pols
Evolucionant progressivament
l' 27 a les 10 UTC al 27 a les 12 UTC
Vent 10 kt del Oest

TAF: OEAO 262300Z 2700/2806 36016KT 7000 NSC TEMPO 2702/2710 5000 BLDU BECMG 2710/2712 27010KT

Observacions i pronòstics meteorològics de més de 4000 aeroports (METAR i TAF).

Les estacions disponibles són els punts grocs i vermells al mapa.

Posi el ratolí al punt desitjat per veure el nom de l'estació.

Feu clic per veure les observacions i els pronòstics meteorològics.

Per canviar el mapa: feu clic els botons verds amb una creu de color negre per apropar; al botó verd amb un guió per allunyar la imatge; o en les fletxes verdes per a mapes adjacents.


METAR-TAF: